Merced Regional Macready Field Merced US
ICAO: KMCE
IATA: MCE
Category: Medium
Scheduled Services: No

Elevation: 155 ft
TransAlt. 18000 ft.

Airport Communications:
NORCAL APP/DEP:120.95
ASOS:132.175
CTAF/UNICOM:122.7

KMCE Zoom In..

If you have problems with the map follow the link
https://www.worldairports.se/pages/airport.php?
ICAO=KMCE

Runways:

(A) RW 12 length 5914 ft width 150 ft
---- / hdg 123

(B) RW 30 length 5914 ft width 150 ft
ILS 109.30 / hdg 303

Location; KMCE
Day. 14 / Time. 20.53 Zulu
* Altimeter: 30.11
* Temperature: 12° c. 53.6°f.
* Wind from: 000° Speed 00 kn.
Dewpoint: 08° c.
Visibility: 3 Statute Miles.
Clouds: Clear (automated report).
Conditions: Haze.

KMCE 142053Z AUTO 00000KT 3SM HZ CLR 12/08 A3011 RMK AO2 SLP195 T01170083 51017


Wind - Calm.

 
 
jpsmedia.com for Web Design worldairports.se 2018   terms of use